createdAt,value
2023-04-20T00:01:07.844Z,15.00
2023-04-20T00:03:38.373Z,14.25
2023-04-20T00:06:08.100Z,14.00
2023-04-20T00:08:36.702Z,15.00
2023-04-20T00:11:04.986Z,14.33
2023-04-20T00:13:33.707Z,14.00
2023-04-20T00:16:03.404Z,14.00
2023-04-20T00:18:31.915Z,14.25
2023-04-20T00:21:00.261Z,14.25
2023-04-20T00:23:28.855Z,15.25
2023-04-20T00:25:57.121Z,15.25
2023-04-20T00:28:25.956Z,14.25
2023-04-20T00:30:54.241Z,15.75
2023-04-20T00:33:22.982Z,13.75
2023-04-20T00:35:51.216Z,15.25
2023-04-20T00:38:19.772Z,13.50
2023-04-20T00:40:53.318Z,13.25
2023-04-20T00:43:22.690Z,15.00
2023-04-20T00:45:52.904Z,15.00
2023-04-20T00:48:22.362Z,13.75
2023-04-20T00:50:51.206Z,15.00
2023-04-20T00:53:19.905Z,15.50
2023-04-20T00:55:51.398Z,15.25
2023-04-20T00:58:20.293Z,14.00
2023-04-20T01:00:48.515Z,14.00
2023-04-20T01:03:20.017Z,15.25
2023-04-20T01:05:50.130Z,14.00
2023-04-20T01:08:18.689Z,14.25
2023-04-20T01:10:46.970Z,14.33
2023-04-20T01:13:15.540Z,15.50
2023-04-20T01:15:43.812Z,13.50
2023-04-20T01:18:12.460Z,14.33
2023-04-20T01:20:40.921Z,14.50
2023-04-20T01:23:09.762Z,13.75
2023-04-20T01:25:37.958Z,13.75
2023-04-20T01:28:06.641Z,14.00
2023-04-20T01:30:35.261Z,14.00
2023-04-20T01:33:05.784Z,14.00
2023-04-20T01:35:34.049Z,15.25
2023-04-20T01:38:04.040Z,13.67
2023-04-20T01:40:32.568Z,14.33
2023-04-20T01:43:01.385Z,14.00
2023-04-20T01:45:29.633Z,14.25
2023-04-20T01:47:59.355Z,13.25
2023-04-20T01:50:27.608Z,13.50
2023-04-20T01:52:56.484Z,14.25
2023-04-20T01:55:24.842Z,14.00
2023-04-20T01:57:54.366Z,14.25
2023-04-20T02:00:22.930Z,13.75
2023-04-20T02:02:51.685Z,14.00
2023-04-20T02:05:20.077Z,15.50
2023-04-20T02:07:48.644Z,13.67
2023-04-20T02:10:16.865Z,14.00
2023-04-20T02:12:46.989Z,15.25
2023-04-20T02:15:15.456Z,15.00
2023-04-20T02:17:45.547Z,15.25
2023-04-20T02:20:14.763Z,14.25
2023-04-20T02:22:43.377Z,15.75
2023-04-20T02:25:11.734Z,15.25
2023-04-20T02:27:40.406Z,14.00
2023-04-20T02:30:09.129Z,14.00
2023-04-20T02:32:37.763Z,15.25
2023-04-20T02:35:06.581Z,15.33
2023-04-20T02:37:35.194Z,15.25
2023-04-20T02:40:05.317Z,15.50
2023-04-20T02:42:33.922Z,15.25
2023-04-20T02:45:04.698Z,14.00
2023-04-20T02:47:33.851Z,15.00
2023-04-20T02:50:02.147Z,15.00
2023-04-20T02:52:34.403Z,15.00
2023-04-20T02:55:04.192Z,14.00
2023-04-20T02:57:33.250Z,14.00
2023-04-20T03:00:02.680Z,13.67
2023-04-20T03:02:44.684Z,15.00
2023-04-20T03:05:13.632Z,14.00
2023-04-20T03:07:45.417Z,15.50
2023-04-20T03:10:14.415Z,14.00
2023-04-20T03:12:53.374Z,13.75
2023-04-20T03:15:24.584Z,14.00
2023-04-20T03:18:32.093Z,13.50
2023-04-20T03:21:00.911Z,14.00
2023-04-20T03:23:32.318Z,15.00
2023-04-20T03:26:02.556Z,14.50
2023-04-20T03:28:44.580Z,15.00
2023-04-20T03:31:16.706Z,14.00
2023-04-20T03:33:45.768Z,14.00
2023-04-20T03:36:14.514Z,14.00
2023-04-20T03:38:44.529Z,13.50
2023-04-20T03:41:13.298Z,14.25
2023-04-20T03:43:42.026Z,14.25
2023-04-20T03:46:11.366Z,13.75
2023-04-20T03:48:40.015Z,14.25
2023-04-20T03:51:08.289Z,16.00
2023-04-20T03:53:38.944Z,14.25
2023-04-20T03:56:10.267Z,15.33
2023-04-20T03:58:39.148Z,13.75
2023-04-20T04:01:13.618Z,13.75
2023-04-20T04:03:46.835Z,14.00
2023-04-20T04:06:15.863Z,14.25
2023-04-20T04:08:44.547Z,14.00
2023-04-20T04:11:12.748Z,15.25
2023-04-20T04:13:41.280Z,14.00
2023-04-20T04:16:10.668Z,15.75
2023-04-20T04:18:45.772Z,14.25
2023-04-20T04:21:14.102Z,14.00
2023-04-20T04:23:47.671Z,14.25
2023-04-20T04:26:32.231Z,14.00
2023-04-20T04:29:04.705Z,14.25
2023-04-20T04:31:35.235Z,14.25
2023-04-20T04:34:15.084Z,14.00
2023-04-20T04:36:50.771Z,15.00
2023-04-20T04:39:24.884Z,14.00
2023-04-20T04:42:05.473Z,15.25
2023-04-20T04:44:41.571Z,15.25
2023-04-20T04:47:14.563Z,15.75
2023-04-20T04:49:43.279Z,15.33
2023-04-20T04:52:11.839Z,15.75
2023-04-20T04:54:40.569Z,14.33
2023-04-20T04:57:08.770Z,13.67
2023-04-20T04:59:37.640Z,15.33
2023-04-20T05:02:06.017Z,15.75
2023-04-20T05:04:34.728Z,15.50
2023-04-20T05:07:03.192Z,15.50
2023-04-20T05:09:34.048Z,15.50
2023-04-20T05:12:03.323Z,14.00
2023-04-20T05:14:32.329Z,15.00
2023-04-20T05:17:01.250Z,14.00
2023-04-20T05:19:29.819Z,15.75
2023-04-20T05:21:58.058Z,15.50
2023-04-20T05:24:26.985Z,15.00
2023-04-20T05:26:55.196Z,14.00
2023-04-20T05:29:24.402Z,15.00
2023-04-20T05:31:52.717Z,15.50
2023-04-20T05:34:21.526Z,15.00
2023-04-20T05:36:49.791Z,15.50
2023-04-20T05:39:19.134Z,15.00
2023-04-20T05:41:48.122Z,14.25
2023-04-20T05:44:16.680Z,15.00
2023-04-20T05:46:44.986Z,14.67
2023-04-20T05:49:13.608Z,15.00
2023-04-20T05:51:41.856Z,14.00
2023-04-20T05:54:10.611Z,14.50
2023-04-20T05:56:38.951Z,14.50
2023-04-20T05:59:07.660Z,13.75
2023-04-20T06:01:36.008Z,14.00
2023-04-20T06:04:04.721Z,14.25
2023-04-20T06:06:33.084Z,14.00
2023-04-20T06:09:01.702Z,14.00
2023-04-20T06:11:29.974Z,13.50
2023-04-20T06:13:58.567Z,14.25
2023-04-20T06:16:27.015Z,14.00
2023-04-20T06:18:55.657Z,14.00
2023-04-20T06:21:25.075Z,14.00
2023-04-20T06:23:53.674Z,14.00
2023-04-20T06:26:22.315Z,15.00
2023-04-20T06:28:53.225Z,15.00
2023-04-20T06:31:22.269Z,15.00
2023-04-20T06:33:50.925Z,13.00
2023-04-20T06:36:19.076Z,14.75
2023-04-20T06:38:47.759Z,15.25
2023-04-20T06:41:16.687Z,14.00
2023-04-20T06:43:46.429Z,15.25
2023-04-20T06:46:14.776Z,14.25
2023-04-20T06:48:43.389Z,14.25
2023-04-20T06:51:13.554Z,15.25
2023-04-20T06:53:42.369Z,14.00
2023-04-20T06:56:11.635Z,15.00
2023-04-20T06:58:40.259Z,14.00
2023-04-20T07:01:08.668Z,13.75
2023-04-20T07:03:38.707Z,13.50
2023-04-20T07:06:07.520Z,12.67
2023-04-20T07:08:36.202Z,13.75
2023-04-20T07:11:04.463Z,13.50
2023-04-20T07:13:33.869Z,14.00
2023-04-20T07:16:03.121Z,13.75
2023-04-20T07:18:33.919Z,13.00
2023-04-20T07:21:03.530Z,14.25
2023-04-20T07:23:32.202Z,12.50
2023-04-20T07:26:00.660Z,12.50
2023-04-20T07:28:29.462Z,13.00
2023-04-20T07:30:57.753Z,12.33
2023-04-20T07:33:26.605Z,13.00
2023-04-20T07:35:55.104Z,12.50
2023-04-20T07:38:23.759Z,12.50
2023-04-20T07:40:52.010Z,12.75
2023-04-20T07:43:20.781Z,14.00
2023-04-20T07:45:49.075Z,12.50
2023-04-20T07:48:17.635Z,12.75
2023-04-20T07:50:46.602Z,12.50
2023-04-20T07:53:15.116Z,12.75
2023-04-20T07:55:43.342Z,12.33
2023-04-20T07:58:12.756Z,12.25
2023-04-20T08:00:41.055Z,12.50
2023-04-20T08:03:09.978Z,12.25
2023-04-20T08:05:39.471Z,14.00
2023-04-20T08:08:08.165Z,12.75
2023-04-20T08:10:36.955Z,12.75
2023-04-20T08:13:05.590Z,12.33
2023-04-20T08:15:33.787Z,13.75
2023-04-20T08:18:02.488Z,12.50
2023-04-20T08:20:30.695Z,11.50
2023-04-20T08:22:59.507Z,12.50
2023-04-20T08:25:27.820Z,12.00
2023-04-20T08:27:57.084Z,12.75
2023-04-20T08:30:25.366Z,14.00
2023-04-20T08:32:53.976Z,12.25
2023-04-20T08:35:22.257Z,14.00
2023-04-20T08:37:50.872Z,12.50
2023-04-20T08:40:22.065Z,12.75
2023-04-20T08:42:50.636Z,12.50
2023-04-20T08:45:18.852Z,14.00
2023-04-20T08:47:48.069Z,12.50
2023-04-20T08:50:16.786Z,13.75
2023-04-20T08:52:45.793Z,12.50
2023-04-20T08:55:21.545Z,12.75
2023-04-20T08:57:50.435Z,13.50
2023-04-20T09:00:18.880Z,12.67
2023-04-20T09:02:56.959Z,12.50
2023-04-20T09:05:30.190Z,13.75
2023-04-20T09:08:01.385Z,13.00
2023-04-20T09:10:40.236Z,13.00
2023-04-20T09:13:10.771Z,14.00
2023-04-20T09:15:38.930Z,14.00
2023-04-20T09:18:14.933Z,13.00
2023-04-20T09:20:43.170Z,14.00
2023-04-20T09:23:17.256Z,13.00
2023-04-20T09:25:47.709Z,13.75
2023-04-20T09:28:18.025Z,12.33
2023-04-20T09:30:47.867Z,14.00
2023-04-20T09:33:16.613Z,14.00
2023-04-20T09:35:45.939Z,13.00
2023-04-20T09:38:17.782Z,13.00
2023-04-20T09:40:46.164Z,14.00
2023-04-20T09:43:19.276Z,12.00
2023-04-20T09:45:47.900Z,14.00
2023-04-20T09:48:19.715Z,12.33
2023-04-20T09:50:50.973Z,12.00
2023-04-20T09:53:20.886Z,12.75
2023-04-20T09:55:51.641Z,13.00
2023-04-20T09:58:21.766Z,13.00
2023-04-20T10:00:51.202Z,13.00
2023-04-20T10:03:20.661Z,12.75
2023-04-20T10:05:50.190Z,13.50
2023-04-20T10:08:20.771Z,12.67
2023-04-20T10:10:50.346Z,14.00
2023-04-20T10:13:23.517Z,12.75
2023-04-20T10:15:52.066Z,14.25
2023-04-20T10:18:25.048Z,12.33
2023-04-20T10:21:07.067Z,13.67
2023-04-20T10:23:35.692Z,12.25
2023-04-20T10:26:04.095Z,13.00
2023-04-20T10:28:40.530Z,13.75
2023-04-20T10:31:13.323Z,12.00
2023-04-20T10:33:55.742Z,14.00
2023-04-20T10:36:33.046Z,13.25
2023-04-20T10:39:05.248Z,14.25
2023-04-20T10:41:33.522Z,14.33
2023-04-20T10:44:09.224Z,14.00
2023-04-20T10:46:37.777Z,14.00
2023-04-20T10:49:06.841Z,14.00
2023-04-20T10:51:35.084Z,14.75
2023-04-20T10:54:08.449Z,15.25
2023-04-20T10:56:42.227Z,15.00
2023-04-20T10:59:13.094Z,16.75
2023-04-20T11:01:41.829Z,15.25
2023-04-20T11:04:11.819Z,15.00
2023-04-20T11:06:42.158Z,15.33
2023-04-20T11:09:27.050Z,15.25
2023-04-20T11:12:14.973Z,15.00
2023-04-20T11:15:03.099Z,15.00
2023-04-20T11:17:35.469Z,16.67
2023-04-20T11:20:15.380Z,16.33
2023-04-20T11:22:44.427Z,16.75
2023-04-20T11:25:13.916Z,16.50
2023-04-20T11:27:43.291Z,16.00
2023-04-20T11:30:11.715Z,16.50
2023-04-20T11:32:40.566Z,18.00
2023-04-20T11:35:11.325Z,16.25
2023-04-20T11:37:51.729Z,16.75
2023-04-20T11:40:20.181Z,17.25
2023-04-20T11:42:48.736Z,17.00
2023-04-20T11:45:18.093Z,17.25
2023-04-20T11:47:47.473Z,15.00
2023-04-20T11:50:16.039Z,15.25
2023-04-20T11:52:45.024Z,16.25
2023-04-20T11:55:13.588Z,15.33
2023-04-20T11:57:42.692Z,16.25
2023-04-20T12:00:11.324Z,16.50
2023-04-20T12:02:42.943Z,15.00
2023-04-20T12:05:12.368Z,16.50
2023-04-20T12:07:41.121Z,16.50
2023-04-20T12:10:09.722Z,16.50
2023-04-20T12:12:38.727Z,16.00
2023-04-20T12:15:07.790Z,17.33
2023-04-20T12:17:36.460Z,15.00
2023-04-20T12:20:09.237Z,16.50
2023-04-20T12:22:38.244Z,16.00
2023-04-20T12:25:07.462Z,15.25
2023-04-20T12:27:36.226Z,16.00
2023-04-20T12:30:05.121Z,16.00
2023-04-20T12:32:33.756Z,15.00
2023-04-20T12:35:02.083Z,15.00
2023-04-20T12:37:31.091Z,15.50
2023-04-20T12:39:59.220Z,16.67
2023-04-20T12:42:27.813Z,16.00
2023-04-20T12:44:56.448Z,15.50
2023-04-20T12:47:25.368Z,15.25
2023-04-20T12:49:54.830Z,16.25
2023-04-20T12:52:23.492Z,16.50
2023-04-20T12:54:51.688Z,13.75
2023-04-20T12:57:20.234Z,14.00
2023-04-20T12:59:51.486Z,15.00
2023-04-20T13:02:20.322Z,15.00
2023-04-20T13:04:48.648Z,18.00
2023-04-20T13:07:17.250Z,25.75
2023-04-20T13:09:45.500Z,25.50
2023-04-20T13:12:14.267Z,30.75
2023-04-20T13:14:42.930Z,30.25
2023-04-20T13:17:11.433Z,32.67
2023-04-20T13:19:39.709Z,32.50
2023-04-20T13:22:08.329Z,32.00
2023-04-20T13:24:36.619Z,31.00
2023-04-20T13:27:05.410Z,28.00
2023-04-20T13:29:33.673Z,28.33
2023-04-20T13:32:02.296Z,30.00
2023-04-20T13:34:30.642Z,30.00
2023-04-20T13:36:59.290Z,27.33
2023-04-20T13:39:28.096Z,26.50
2023-04-20T13:41:57.075Z,25.75
2023-04-20T13:44:25.460Z,23.00
2023-04-20T13:46:54.067Z,23.00
2023-04-20T13:49:23.183Z,23.50
2023-04-20T13:51:51.711Z,20.50
2023-04-20T13:54:20.135Z,22.00
2023-04-20T13:56:48.810Z,24.00
2023-04-20T13:59:17.182Z,23.00
2023-04-20T14:01:45.738Z,21.50
2023-04-20T14:04:17.082Z,22.25
2023-04-20T14:06:46.317Z,22.50
2023-04-20T14:09:14.662Z,24.50
2023-04-20T14:11:43.867Z,22.50
2023-04-20T14:14:12.277Z,22.50
2023-04-20T14:16:47.869Z,20.75
2023-04-20T14:19:16.190Z,21.25
2023-04-20T14:21:46.964Z,20.50
2023-04-20T14:24:15.339Z,21.00
2023-04-20T14:26:44.046Z,20.25
2023-04-20T14:29:12.445Z,21.00
2023-04-20T14:31:41.074Z,22.50
2023-04-20T14:34:09.798Z,20.33
2023-04-20T14:36:38.367Z,19.75
2023-04-20T14:39:06.579Z,19.25
2023-04-20T14:41:35.741Z,19.50
2023-04-20T14:44:05.327Z,18.00
2023-04-20T14:46:33.958Z,19.25
2023-04-20T14:49:02.295Z,17.50
2023-04-20T14:51:31.348Z,17.50
2023-04-20T14:53:59.722Z,18.25
2023-04-20T14:56:28.363Z,16.75
2023-04-20T14:58:57.705Z,17.50
2023-04-20T15:01:28.136Z,17.00
2023-04-20T15:03:56.725Z,17.25
2023-04-20T15:06:25.783Z,18.00
2023-04-20T15:08:57.497Z,18.00
2023-04-20T15:11:26.192Z,19.25
2023-04-20T15:13:54.541Z,17.25
2023-04-20T15:16:23.102Z,18.75
2023-04-20T15:18:53.311Z,16.75
2023-04-20T15:21:23.552Z,18.25
2023-04-20T15:23:51.745Z,16.50
2023-04-20T15:26:20.366Z,15.50
2023-04-20T15:28:50.352Z,16.50
2023-04-20T15:31:19.425Z,17.75
2023-04-20T15:33:51.010Z,16.00
2023-04-20T15:36:20.665Z,18.00
2023-04-20T15:38:48.941Z,16.33
2023-04-20T15:41:17.672Z,16.33
2023-04-20T15:43:46.232Z,16.67
2023-04-20T15:46:14.970Z,15.50
2023-04-20T15:48:45.079Z,16.50
2023-04-20T15:51:13.774Z,16.50
2023-04-20T15:53:45.093Z,17.00
2023-04-20T15:56:13.674Z,16.75
2023-04-20T15:58:42.084Z,18.25
2023-04-20T16:01:10.773Z,15.75
2023-04-20T16:03:39.750Z,16.50
2023-04-20T16:06:08.583Z,15.00
2023-04-20T16:08:36.859Z,16.50
2023-04-20T16:11:24.205Z,15.75
2023-04-20T16:13:52.523Z,15.00
2023-04-20T16:16:21.136Z,15.25
2023-04-20T16:18:49.716Z,16.00
2023-04-20T16:21:19.071Z,15.25
2023-04-20T16:23:47.270Z,16.75
2023-04-20T16:26:17.109Z,15.75
2023-04-20T16:28:45.449Z,16.50
2023-04-20T16:31:14.218Z,15.75
2023-04-20T16:33:43.027Z,16.00
2023-04-20T16:36:12.625Z,15.25
2023-04-20T16:38:40.869Z,15.00
2023-04-20T16:41:09.745Z,16.50
2023-04-20T16:43:38.113Z,14.25
2023-04-20T16:46:10.377Z,15.50
2023-04-20T16:48:38.668Z,15.00
2023-04-20T16:51:09.467Z,16.00
2023-04-20T16:53:37.756Z,14.50
2023-04-20T16:56:06.723Z,17.00
2023-04-20T16:58:35.125Z,15.25
2023-04-20T17:01:04.116Z,14.50
2023-04-20T17:03:32.658Z,15.00
2023-04-20T17:06:07.592Z,15.00
2023-04-20T17:08:39.810Z,15.00
2023-04-20T17:11:08.486Z,15.25
2023-04-20T17:13:36.884Z,15.00
2023-04-20T17:16:05.578Z,16.50
2023-04-20T17:18:35.265Z,14.00
2023-04-20T17:21:04.027Z,15.00
2023-04-20T17:23:36.137Z,14.00
2023-04-20T17:26:04.810Z,13.67
2023-04-20T17:28:33.207Z,14.00
2023-04-20T17:31:01.928Z,15.25
2023-04-20T17:33:30.893Z,14.00
2023-04-20T17:36:00.770Z,13.67
2023-04-20T17:38:29.034Z,16.00
2023-04-20T17:40:57.665Z,15.25
2023-04-20T17:43:25.982Z,15.25
2023-04-20T17:45:54.712Z,14.00
2023-04-20T17:48:23.057Z,13.50
2023-04-20T17:50:52.063Z,14.25
2023-04-20T17:53:20.457Z,13.00
2023-04-20T17:55:49.043Z,14.00
2023-04-20T17:58:17.992Z,15.33
2023-04-20T18:00:47.931Z,14.00
2023-04-20T18:03:16.723Z,14.00
2023-04-20T18:05:46.025Z,15.00
2023-04-20T18:08:15.834Z,14.00
2023-04-20T18:10:44.810Z,14.00
2023-04-20T18:13:13.134Z,15.00
2023-04-20T18:15:41.807Z,15.25
2023-04-20T18:18:10.269Z,14.00
2023-04-20T18:20:39.106Z,14.00
2023-04-20T18:23:07.701Z,15.00
2023-04-20T18:25:36.861Z,14.00
2023-04-20T18:28:05.198Z,14.25
2023-04-20T18:30:34.127Z,14.00
2023-04-20T18:33:02.584Z,14.00
2023-04-20T18:35:31.456Z,14.50
2023-04-20T18:37:59.896Z,14.00
2023-04-20T18:40:28.556Z,13.75
2023-04-20T18:42:56.888Z,14.00
2023-04-20T18:45:25.835Z,14.00
2023-04-20T18:48:12.897Z,14.67
2023-04-20T18:50:41.739Z,15.25
2023-04-20T18:53:09.996Z,15.25
2023-04-20T18:55:38.684Z,16.50
2023-04-20T18:58:07.105Z,15.25
2023-04-20T19:00:35.872Z,15.33
2023-04-20T19:03:05.938Z,15.00
2023-04-20T19:05:34.944Z,15.00
2023-04-20T19:08:03.399Z,15.50
2023-04-20T19:10:32.340Z,14.00
2023-04-20T19:13:00.773Z,15.00
2023-04-20T19:15:29.402Z,15.00
2023-04-20T19:17:57.862Z,14.00
2023-04-20T19:20:26.888Z,15.50
2023-04-20T19:22:55.448Z,15.25
2023-04-20T19:25:24.168Z,14.00
2023-04-20T19:27:52.467Z,15.00
2023-04-20T19:30:21.445Z,15.00
2023-04-20T19:32:49.853Z,14.25
2023-04-20T19:35:18.536Z,15.50
2023-04-20T19:37:47.244Z,15.25
2023-04-20T19:40:16.475Z,14.00
2023-04-20T19:42:44.841Z,14.25
2023-04-20T19:45:13.325Z,14.25
2023-04-20T19:47:41.809Z,14.00
2023-04-20T19:50:11.678Z,15.25
2023-04-20T19:52:40.015Z,13.75
2023-04-20T19:55:09.097Z,14.00
2023-04-20T19:57:37.185Z,14.25
2023-04-20T20:00:07.761Z,15.00
2023-04-20T20:02:41.678Z,15.25
2023-04-20T20:05:10.677Z,15.25
2023-04-20T20:07:38.900Z,14.50
2023-04-20T20:10:08.098Z,14.00
2023-04-20T20:12:36.276Z,15.25
2023-04-20T20:15:05.056Z,13.75
2023-04-20T20:17:33.703Z,13.00
2023-04-20T20:20:02.482Z,14.00
2023-04-20T20:22:30.723Z,13.67
2023-04-20T20:25:01.388Z,14.00
2023-04-20T20:27:29.560Z,15.00
2023-04-20T20:29:58.079Z,15.33
2023-04-20T20:32:26.282Z,15.00
2023-04-20T20:34:54.795Z,14.50
2023-04-20T20:37:23.039Z,13.75
2023-04-20T20:39:53.384Z,14.00
2023-04-20T20:42:21.715Z,14.00
2023-04-20T20:44:51.255Z,14.00
2023-04-20T20:47:19.401Z,14.00
2023-04-20T20:49:47.827Z,13.00
2023-04-20T20:52:16.128Z,13.67
2023-04-20T20:54:44.706Z,14.00
2023-04-20T20:57:12.840Z,15.00
2023-04-20T20:59:42.254Z,14.33
2023-04-20T21:02:10.715Z,14.00
2023-04-20T21:04:39.253Z,14.00
2023-04-20T21:07:07.449Z,14.00
2023-04-20T21:09:36.026Z,15.33
2023-04-20T21:12:04.447Z,14.00
2023-04-20T21:14:33.148Z,14.00
2023-04-20T21:17:01.417Z,14.00
2023-04-20T21:19:30.093Z,14.50
2023-04-20T21:21:58.409Z,13.50
2023-04-20T21:24:27.268Z,14.50
2023-04-20T21:26:55.458Z,14.00
2023-04-20T21:29:24.208Z,14.00
2023-04-20T21:31:52.414Z,13.50
2023-04-20T21:34:20.969Z,15.25
2023-04-20T21:36:49.097Z,15.25
2023-04-20T21:39:17.820Z,14.00
2023-04-20T21:41:46.401Z,14.00
2023-04-20T21:44:14.899Z,14.25
2023-04-20T21:46:43.076Z,14.00
2023-04-20T21:49:11.691Z,14.00
2023-04-20T21:51:39.799Z,14.00
2023-04-20T21:54:08.272Z,14.25
2023-04-20T21:56:36.397Z,13.67
2023-04-20T21:59:04.874Z,15.25
2023-04-20T22:01:33.254Z,14.00
2023-04-20T22:04:02.394Z,15.25
2023-04-20T22:06:32.496Z,15.75
2023-04-20T22:09:01.169Z,16.75
2023-04-20T22:11:29.836Z,15.50
2023-04-20T22:13:58.414Z,16.33
2023-04-20T22:16:28.889Z,17.00
2023-04-20T22:18:58.713Z,16.75
2023-04-20T22:21:27.149Z,16.50
2023-04-20T22:23:55.727Z,17.25
2023-04-20T22:26:24.065Z,16.50
2023-04-20T22:28:52.755Z,16.00
2023-04-20T22:31:21.018Z,16.75
2023-04-20T22:33:49.779Z,17.00
2023-04-20T22:36:18.739Z,16.50
2023-04-20T22:38:47.257Z,18.00
2023-04-20T22:41:17.326Z,18.00
2023-04-20T22:43:46.298Z,18.25
2023-04-20T22:46:14.527Z,16.75
2023-04-20T22:48:43.205Z,16.75
2023-04-20T22:51:11.376Z,16.75
2023-04-20T22:53:39.826Z,17.75
2023-04-20T22:56:08.866Z,16.50
2023-04-20T22:58:37.384Z,17.00
2023-04-20T23:01:05.658Z,17.00
2023-04-20T23:03:34.429Z,15.00
2023-04-20T23:06:03.070Z,17.00
2023-04-20T23:08:33.961Z,18.00
2023-04-20T23:11:02.292Z,16.50
2023-04-20T23:13:30.958Z,16.33
2023-04-20T23:15:59.156Z,17.50
2023-04-20T23:18:27.657Z,15.00
2023-04-20T23:20:57.293Z,17.75
2023-04-20T23:23:26.103Z,16.75
2023-04-20T23:25:54.449Z,16.67
2023-04-20T23:28:23.156Z,17.00
2023-04-20T23:30:51.488Z,16.25
2023-04-20T23:33:20.024Z,16.75
2023-04-20T23:35:48.328Z,16.75
2023-04-20T23:38:18.515Z,16.67
2023-04-20T23:40:46.812Z,16.50
2023-04-20T23:43:15.554Z,17.00
2023-04-20T23:45:43.775Z,14.33
2023-04-20T23:48:12.544Z,15.75
2023-04-20T23:50:40.787Z,15.25
2023-04-20T23:53:10.711Z,15.25
2023-04-20T23:55:38.946Z,14.25
2023-04-20T23:58:07.616Z,14.75
